M/V Le Conte — WZE4270 — position and weather

sailwx.info

Track history (hours):
 
Tides and Currents Weather Stations Pressure Air Temp Water Temp Dewpoint Dewpoint Depression Visibility Wind Speed Wind Dir Waves Ship Positions

M/V Le Conte

Owner: ALASKA MARINE HIGHWAY SYSTEM, JUNEAU, AK. More information available from US FCC via Universal Licensing System and Coast Guard Vessel Documentation Center.

Last reported at 2018-May-27 00:00 UTC. Time now 2018-May-27 08:14 UTC.
Position N 57°42' W 135°06'.

Type: Passenger vessel. MMSI: 338761000.

Wind from 090 at 15 knots

Barometer 1002.0 mb
Air temperature 10.0 ° C
Visibility: greater than 10.8 NM

Date/timePositionNaut miles runAvg speedWind from/ knotsBaromVisibWave heightAir tempDewpointWater temp
2018-May-27 00:00N 57°42' W 135°06'13 2.6 090 / 151002.010.8 10.0
2018-May-26 19:00N 57°42' W 134°42'   100 / 251002.710.8 7.0
2018-May-23 23:07N 58°10' W 135°28'216.0
2018-May-23 23:00N 58°12' W 135°27'816.1
2018-May-23 22:30N 58°17' W 135°39'713.4
2018-May-23 22:00N 58°23' W 135°44'0 0.3
2018-May-23 21:29N 58°23' W 135°44'0 0.0
2018-May-23 20:43N 58°23' W 135°44'0 0.0
2018-May-23 20:28N 58°23' W 135°44'5 9.9
2018-May-23 20:00N 58°23' W 135°35'814.7
2018-May-23 19:28N 58°18' W 135°24'14 9.4
2018-May-23 18:00N 58°12' W 135°00'11 0.3 250 / 31012.910.8 10.0
2018-May-21 23:41N 58°13' W 135°21'315.2
2018-May-21 23:28N 58°15' W 135°27'715.6
2018-May-21 22:59N 58°18' W 135°40'612.0
2018-May-21 22:30N 58°23' W 135°43'0 0.6
2018-May-21 21:59N 58°23' W 135°44'0 0.0
2018-May-21 21:26N 58°23' W 135°44'0 0.2
2018-May-21 21:00N 58°23' W 135°44'510.5
2018-May-21 20:30N 58°18' W 135°41'915.7
2018-May-21 19:57N 58°12' W 135°30'  
2018-May-17 01:35N 58°13' W 135°18'115.9
2018-May-17 01:30N 58°13' W 135°20'815.6
2018-May-17 01:00N 58°16' W 135°33'714.3
2018-May-17 00:31N 58°20' W 135°44'3 5.6
2018-May-17 00:00N 58°23' W 135°44'  
Track history (hours):
 
Tides and Currents Weather Stations Pressure Air Temp Water Temp Dewpoint Dewpoint Depression Visibility Wind Speed Wind Dir Waves Ship Positions

M/V Le Conte

Owner: ALASKA MARINE HIGHWAY SYSTEM, JUNEAU, AK. More information available from US FCC via Universal Licensing System and Coast Guard Vessel Documentation Center.

Last reported at 2018-May-27 00:00 UTC. Time now 2018-May-27 08:14 UTC.
Position N 57°42' W 135°06'.

Type: Passenger vessel. MMSI: 338761000.

Wind from 090 at 15 knots

Barometer 1002.0 mb
Air temperature 10.0 ° C
Visibility: greater than 10.8 NM

Date/timePositionNaut miles runAvg speedWind from/ knotsBaromVisibWave heightAir tempDewpointWater temp
2018-May-27 00:00N 57°42' W 135°06'13 2.6 090 / 151002.010.8 10.0
2018-May-26 19:00N 57°42' W 134°42'   100 / 251002.710.8 7.0
2018-May-23 23:07N 58°10' W 135°28'216.0
2018-May-23 23:00N 58°12' W 135°27'816.1
2018-May-23 22:30N 58°17' W 135°39'713.4
2018-May-23 22:00N 58°23' W 135°44'0 0.3
2018-May-23 21:29N 58°23' W 135°44'0 0.0
2018-May-23 20:43N 58°23' W 135°44'0 0.0
2018-May-23 20:28N 58°23' W 135°44'5 9.9
2018-May-23 20:00N 58°23' W 135°35'814.7
2018-May-23 19:28N 58°18' W 135°24'14 9.4
2018-May-23 18:00N 58°12' W 135°00'11 0.3 250 / 31012.910.8 10.0
2018-May-21 23:41N 58°13' W 135°21'315.2
2018-May-21 23:28N 58°15' W 135°27'715.6
2018-May-21 22:59N 58°18' W 135°40'612.0
2018-May-21 22:30N 58°23' W 135°43'0 0.6
2018-May-21 21:59N 58°23' W 135°44'0 0.0
2018-May-21 21:26N 58°23' W 135°44'0 0.2
2018-May-21 21:00N 58°23' W 135°44'510.5
2018-May-21 20:30N 58°18' W 135°41'915.7
2018-May-21 19:57N 58°12' W 135°30'  
2018-May-17 01:35N 58°13' W 135°18'115.9
2018-May-17 01:30N 58°13' W 135°20'815.6
2018-May-17 01:00N 58°16' W 135°33'714.3
2018-May-17 00:31N 58°20' W 135°44'3 5.6
2018-May-17 00:00N 58°23' W 135°44'  

Dump ship's entire track history